sensor_id;sensor_type;location;lat;lon;timestamp;P1;durP1;ratioP1;P2;durP2;ratioP2
55732;SDS011;41637;52.364;9.910;2023-11-19T00:00:08;1.17;;;0.70;;
55732;SDS011;41637;52.364;9.910;2023-11-19T00:02:39;1.20;;;0.77;;
55732;SDS011;41637;52.364;9.910;2023-11-19T00:05:07;1.53;;;0.70;;
55732;SDS011;41637;52.364;9.910;2023-11-19T00:07:35;1.40;;;0.68;;
55732;SDS011;41637;52.364;9.910;2023-11-19T00:10:03;1.52;;;0.70;;
55732;SDS011;41637;52.364;9.910;2023-11-19T00:12:33;2.35;;;0.75;;
55732;SDS011;41637;52.364;9.910;2023-11-19T00:15:00;1.42;;;0.73;;
55732;SDS011;41637;52.364;9.910;2023-11-19T00:17:27;1.10;;;0.60;;
55732;SDS011;41637;52.364;9.910;2023-11-19T00:19:54;1.85;;;0.70;;
55732;SDS011;41637;52.364;9.910;2023-11-19T00:22:21;1.15;;;0.60;;
55732;SDS011;41637;52.364;9.910;2023-11-19T00:24:49;0.93;;;0.50;;
55732;SDS011;41637;52.364;9.910;2023-11-19T00:27:16;1.52;;;0.63;;
55732;SDS011;41637;52.364;9.910;2023-11-19T00:29:44;1.17;;;0.60;;
55732;SDS011;41637;52.364;9.910;2023-11-19T00:32:11;1.00;;;0.60;;
55732;SDS011;41637;52.364;9.910;2023-11-19T00:34:38;1.10;;;0.70;;
55732;SDS011;41637;52.364;9.910;2023-11-19T00:37:05;1.38;;;0.60;;
55732;SDS011;41637;52.364;9.910;2023-11-19T00:39:33;3.25;;;0.60;;
55732;SDS011;41637;52.364;9.910;2023-11-19T00:42:00;1.50;;;0.60;;
55732;SDS011;41637;52.364;9.910;2023-11-19T00:44:27;1.25;;;0.70;;
55732;SDS011;41637;52.364;9.910;2023-11-19T00:46:54;1.00;;;0.70;;
55732;SDS011;41637;52.364;9.910;2023-11-19T00:49:20;1.97;;;0.80;;
55732;SDS011;41637;52.364;9.910;2023-11-19T00:51:47;1.52;;;0.80;;
55732;SDS011;41637;52.364;9.910;2023-11-19T00:54:15;1.90;;;0.83;;
55732;SDS011;41637;52.364;9.910;2023-11-19T00:56:42;1.80;;;0.88;;
55732;SDS011;41637;52.364;9.910;2023-11-19T00:59:09;1.85;;;0.80;;
55732;SDS011;41637;52.364;9.910;2023-11-19T01:01:36;2.05;;;1.10;;
55732;SDS011;41637;52.364;9.910;2023-11-19T01:04:03;1.95;;;1.10;;
55732;SDS011;41637;52.364;9.910;2023-11-19T01:06:30;1.92;;;1.20;;
55732;SDS011;41637;52.364;9.910;2023-11-19T01:08:58;2.28;;;1.38;;
55732;SDS011;41637;52.364;9.910;2023-11-19T01:11:28;2.10;;;1.50;;
55732;SDS011;41637;52.364;9.910;2023-11-19T01:13:55;2.33;;;1.60;;
55732;SDS011;41637;52.364;9.910;2023-11-19T01:16:22;2.13;;;1.60;;
55732;SDS011;41637;52.364;9.910;2023-11-19T01:18:49;2.10;;;1.50;;
55732;SDS011;41637;52.364;9.910;2023-11-19T01:21:16;2.58;;;1.90;;
55732;SDS011;41637;52.364;9.910;2023-11-19T01:23:43;2.60;;;2.00;;
55732;SDS011;41637;52.364;9.910;2023-11-19T01:26:10;2.30;;;1.65;;
55732;SDS011;41637;52.364;9.910;2023-11-19T01:28:39;3.22;;;2.20;;
55732;SDS011;41637;52.364;9.910;2023-11-19T01:31:17;2.15;;;1.95;;
55732;SDS011;41637;52.364;9.910;2023-11-19T01:33:44;2.13;;;1.90;;
55732;SDS011;41637;52.364;9.910;2023-11-19T01:36:13;2.10;;;1.90;;
55732;SDS011;41637;52.364;9.910;2023-11-19T01:38:40;2.30;;;2.00;;
55732;SDS011;41637;52.364;9.910;2023-11-19T01:41:07;2.50;;;1.90;;
55732;SDS011;41637;52.364;9.910;2023-11-19T01:43:35;2.78;;;2.08;;
55732;SDS011;41637;52.364;9.910;2023-11-19T01:46:04;2.90;;;2.23;;
55732;SDS011;41637;52.364;9.910;2023-11-19T01:48:32;2.40;;;2.10;;
55732;SDS011;41637;52.364;9.910;2023-11-19T01:51:01;2.75;;;1.92;;
55732;SDS011;41637;52.364;9.910;2023-11-19T01:53:30;2.00;;;1.80;;
55732;SDS011;41637;52.364;9.910;2023-11-19T01:55:58;2.30;;;1.80;;
55732;SDS011;41637;52.364;9.910;2023-11-19T01:58:25;2.47;;;2.10;;
55732;SDS011;41637;52.364;9.910;2023-11-19T02:00:53;2.25;;;1.92;;
55732;SDS011;41637;52.364;9.910;2023-11-19T02:03:20;2.50;;;2.20;;
55732;SDS011;41637;52.364;9.910;2023-11-19T02:05:48;2.38;;;2.00;;
55732;SDS011;41637;52.364;9.910;2023-11-19T02:08:17;3.05;;;2.00;;
55732;SDS011;41637;52.364;9.910;2023-11-19T02:10:44;2.47;;;2.00;;
55732;SDS011;41637;52.364;9.910;2023-11-19T02:13:11;2.42;;;2.00;;
55732;SDS011;41637;52.364;9.910;2023-11-19T02:15:43;2.58;;;1.92;;
55732;SDS011;41637;52.364;9.910;2023-11-19T02:18:23;2.58;;;1.90;;
55732;SDS011;41637;52.364;9.910;2023-11-19T02:20:55;2.40;;;2.10;;
55732;SDS011;41637;52.364;9.910;2023-11-19T02:23:22;2.50;;;1.80;;
55732;SDS011;41637;52.364;9.910;2023-11-19T02:26:05;2.40;;;1.90;;
55732;SDS011;41637;52.364;9.910;2023-11-19T02:28:44;2.20;;;1.70;;
55732;SDS011;41637;52.364;9.910;2023-11-19T02:31:12;2.00;;;1.75;;
55732;SDS011;41637;52.364;9.910;2023-11-19T02:33:39;2.10;;;1.90;;
55732;SDS011;41637;52.364;9.910;2023-11-19T02:36:06;4.10;;;1.83;;
55732;SDS011;41637;52.364;9.910;2023-11-19T02:38:34;2.40;;;1.60;;
55732;SDS011;41637;52.364;9.910;2023-11-19T02:41:06;2.93;;;1.50;;
55732;SDS011;41637;52.364;9.910;2023-11-19T02:43:34;2.00;;;1.33;;
55732;SDS011;41637;52.364;9.910;2023-11-19T02:46:02;1.80;;;1.25;;
55732;SDS011;41637;52.364;9.910;2023-11-19T02:48:41;1.55;;;1.13;;
55732;SDS011;41637;52.364;9.910;2023-11-19T02:51:09;1.70;;;0.90;;
55732;SDS011;41637;52.364;9.910;2023-11-19T02:53:37;1.90;;;0.98;;
55732;SDS011;41637;52.364;9.910;2023-11-19T02:56:05;1.17;;;0.88;;
55732;SDS011;41637;52.364;9.910;2023-11-19T02:58:46;1.77;;;0.90;;
55732;SDS011;41637;52.364;9.910;2023-11-19T03:01:13;2.03;;;0.90;;
55732;SDS011;41637;52.364;9.910;2023-11-19T03:03:50;1.65;;;1.00;;
55732;SDS011;41637;52.364;9.910;2023-11-19T03:06:23;2.50;;;1.07;;
55732;SDS011;41637;52.364;9.910;2023-11-19T03:08:51;1.90;;;1.00;;
55732;SDS011;41637;52.364;9.910;2023-11-19T03:11:18;1.77;;;1.10;;
55732;SDS011;41637;52.364;9.910;2023-11-19T03:13:44;1.35;;;1.00;;
55732;SDS011;41637;52.364;9.910;2023-11-19T03:16:13;1.52;;;0.90;;
55732;SDS011;41637;52.364;9.910;2023-11-19T03:18:40;1.60;;;1.10;;
55732;SDS011;41637;52.364;9.910;2023-11-19T03:21:07;1.80;;;1.00;;
55732;SDS011;41637;52.364;9.910;2023-11-19T03:23:36;1.35;;;0.80;;
55732;SDS011;41637;52.364;9.910;2023-11-19T03:26:03;2.05;;;1.08;;
55732;SDS011;41637;52.364;9.910;2023-11-19T03:28:32;1.60;;;1.00;;
55732;SDS011;41637;52.364;9.910;2023-11-19T03:30:59;2.28;;;0.98;;
55732;SDS011;41637;52.364;9.910;2023-11-19T03:33:26;1.52;;;0.77;;
55732;SDS011;41637;52.364;9.910;2023-11-19T03:35:55;1.50;;;0.80;;
55732;SDS011;41637;52.364;9.910;2023-11-19T03:38:23;2.95;;;0.90;;
55732;SDS011;41637;52.364;9.910;2023-11-19T03:40:51;1.20;;;0.88;;
55732;SDS011;41637;52.364;9.910;2023-11-19T03:43:18;1.45;;;1.00;;
55732;SDS011;41637;52.364;9.910;2023-11-19T03:45:48;1.80;;;0.80;;
55732;SDS011;41637;52.364;9.910;2023-11-19T03:48:15;2.08;;;0.90;;
55732;SDS011;41637;52.364;9.910;2023-11-19T03:50:45;1.95;;;1.02;;
55732;SDS011;41637;52.364;9.910;2023-11-19T03:53:12;1.83;;;0.90;;
55732;SDS011;41637;52.364;9.910;2023-11-19T03:55:40;1.90;;;0.90;;
55732;SDS011;41637;52.364;9.910;2023-11-19T03:58:07;3.13;;;1.03;;
55732;SDS011;41637;52.364;9.910;2023-11-19T04:00:34;1.55;;;0.95;;
55732;SDS011;41637;52.364;9.910;2023-11-19T04:03:01;1.42;;;1.00;;
55732;SDS011;41637;52.364;9.910;2023-11-19T04:05:28;1.52;;;1.00;;
55732;SDS011;41637;52.364;9.910;2023-11-19T04:07:54;1.63;;;1.00;;
55732;SDS011;41637;52.364;9.910;2023-11-19T04:10:21;1.40;;;1.00;;
55732;SDS011;41637;52.364;9.910;2023-11-19T04:12:49;1.58;;;1.13;;
55732;SDS011;41637;52.364;9.910;2023-11-19T04:15:16;1.73;;;1.20;;
55732;SDS011;41637;52.364;9.910;2023-11-19T04:17:43;1.50;;;1.10;;
55732;SDS011;41637;52.364;9.910;2023-11-19T04:20:11;2.17;;;1.33;;
55732;SDS011;41637;52.364;9.910;2023-11-19T04:22:41;1.77;;;1.20;;
55732;SDS011;41637;52.364;9.910;2023-11-19T04:25:08;2.50;;;1.40;;
55732;SDS011;41637;52.364;9.910;2023-11-19T04:27:36;2.08;;;1.40;;
55732;SDS011;41637;52.364;9.910;2023-11-19T04:30:03;2.42;;;1.40;;
55732;SDS011;41637;52.364;9.910;2023-11-19T04:32:32;1.95;;;1.45;;
55732;SDS011;41637;52.364;9.910;2023-11-19T04:34:58;2.28;;;1.58;;
55732;SDS011;41637;52.364;9.910;2023-11-19T04:37:25;3.10;;;1.60;;
55732;SDS011;41637;52.364;9.910;2023-11-19T04:39:52;2.60;;;2.08;;
55732;SDS011;41637;52.364;9.910;2023-11-19T04:42:21;3.35;;;1.98;;
55732;SDS011;41637;52.364;9.910;2023-11-19T04:44:49;3.60;;;2.40;;
55732;SDS011;41637;52.364;9.910;2023-11-19T04:47:15;3.85;;;2.35;;
55732;SDS011;41637;52.364;9.910;2023-11-19T04:49:42;4.40;;;2.50;;
55732;SDS011;41637;52.364;9.910;2023-11-19T04:52:10;3.30;;;2.50;;
55732;SDS011;41637;52.364;9.910;2023-11-19T04:54:42;3.78;;;2.83;;
55732;SDS011;41637;52.364;9.910;2023-11-19T04:57:12;3.63;;;2.90;;
55732;SDS011;41637;52.364;9.910;2023-11-19T04:59:39;4.72;;;3.13;;
55732;SDS011;41637;52.364;9.910;2023-11-19T05:02:06;5.33;;;4.20;;
55732;SDS011;41637;52.364;9.910;2023-11-19T05:04:34;5.70;;;4.10;;
55732;SDS011;41637;52.364;9.910;2023-11-19T05:07:01;6.60;;;4.80;;
55732;SDS011;41637;52.364;9.910;2023-11-19T05:09:30;6.55;;;5.13;;
55732;SDS011;41637;52.364;9.910;2023-11-19T05:11:57;6.55;;;5.00;;
55732;SDS011;41637;52.364;9.910;2023-11-19T05:14:24;7.13;;;4.55;;
55732;SDS011;41637;52.364;9.910;2023-11-19T05:16:51;7.28;;;5.13;;
55732;SDS011;41637;52.364;9.910;2023-11-19T05:19:18;8.68;;;5.63;;
55732;SDS011;41637;52.364;9.910;2023-11-19T05:21:45;8.63;;;6.13;;
55732;SDS011;41637;52.364;9.910;2023-11-19T05:24:12;9.90;;;5.95;;
55732;SDS011;41637;52.364;9.910;2023-11-19T05:26:39;8.43;;;5.60;;
55732;SDS011;41637;52.364;9.910;2023-11-19T05:29:05;9.85;;;5.63;;
55732;SDS011;41637;52.364;9.910;2023-11-19T05:31:32;7.15;;;5.40;;
55732;SDS011;41637;52.364;9.910;2023-11-19T05:34:02;9.02;;;5.78;;
55732;SDS011;41637;52.364;9.910;2023-11-19T05:36:30;10.00;;;5.53;;
55732;SDS011;41637;52.364;9.910;2023-11-19T05:38:57;8.55;;;5.93;;
55732;SDS011;41637;52.364;9.910;2023-11-19T05:41:24;9.32;;;5.93;;
55732;SDS011;41637;52.364;9.910;2023-11-19T05:43:51;8.57;;;5.70;;
55732;SDS011;41637;52.364;9.910;2023-11-19T05:46:18;6.72;;;5.90;;
55732;SDS011;41637;52.364;9.910;2023-11-19T05:48:46;9.75;;;6.43;;
55732;SDS011;41637;52.364;9.910;2023-11-19T05:51:14;8.82;;;6.25;;
55732;SDS011;41637;52.364;9.910;2023-11-19T05:53:44;10.82;;;6.18;;
55732;SDS011;41637;52.364;9.910;2023-11-19T05:56:14;10.48;;;6.78;;
55732;SDS011;41637;52.364;9.910;2023-11-19T05:58:42;11.67;;;7.70;;
55732;SDS011;41637;52.364;9.910;2023-11-19T06:01:11;10.55;;;7.53;;
55732;SDS011;41637;52.364;9.910;2023-11-19T06:03:38;11.55;;;8.18;;
55732;SDS011;41637;52.364;9.910;2023-11-19T06:06:05;11.70;;;8.85;;
55732;SDS011;41637;52.364;9.910;2023-11-19T06:08:32;14.85;;;10.02;;
55732;SDS011;41637;52.364;9.910;2023-11-19T06:10:59;12.13;;;9.67;;
55732;SDS011;41637;52.364;9.910;2023-11-19T06:13:28;13.03;;;9.30;;
55732;SDS011;41637;52.364;9.910;2023-11-19T06:15:57;14.27;;;10.57;;
55732;SDS011;41637;52.364;9.910;2023-11-19T06:18:24;13.52;;;9.63;;
55732;SDS011;41637;52.364;9.910;2023-11-19T06:20:51;11.40;;;9.07;;
55732;SDS011;41637;52.364;9.910;2023-11-19T06:23:18;13.25;;;8.70;;
55732;SDS011;41637;52.364;9.910;2023-11-19T06:25:46;11.47;;;8.20;;
55732;SDS011;41637;52.364;9.910;2023-11-19T06:28:13;11.05;;;7.22;;
55732;SDS011;41637;52.364;9.910;2023-11-19T06:30:40;11.95;;;7.25;;
55732;SDS011;41637;52.364;9.910;2023-11-19T06:33:08;11.05;;;6.90;;
55732;SDS011;41637;52.364;9.910;2023-11-19T06:35:35;11.43;;;7.00;;
55732;SDS011;41637;52.364;9.910;2023-11-19T06:38:05;10.10;;;6.80;;
55732;SDS011;41637;52.364;9.910;2023-11-19T06:40:32;14.55;;;7.35;;
55732;SDS011;41637;52.364;9.910;2023-11-19T06:42:59;12.77;;;6.60;;
55732;SDS011;41637;52.364;9.910;2023-11-19T06:45:26;11.57;;;6.32;;
55732;SDS011;41637;52.364;9.910;2023-11-19T06:47:53;12.07;;;6.40;;
55732;SDS011;41637;52.364;9.910;2023-11-19T06:50:20;14.37;;;6.80;;
55732;SDS011;41637;52.364;9.910;2023-11-19T06:52:47;12.52;;;5.85;;
55732;SDS011;41637;52.364;9.910;2023-11-19T06:55:14;14.95;;;5.90;;
55732;SDS011;41637;52.364;9.910;2023-11-19T06:57:41;14.13;;;5.67;;
55732;SDS011;41637;52.364;9.910;2023-11-19T07:00:08;12.25;;;5.78;;
55732;SDS011;41637;52.364;9.910;2023-11-19T07:02:35;13.00;;;5.70;;
55732;SDS011;41637;52.364;9.910;2023-11-19T07:05:02;15.43;;;5.55;;
55732;SDS011;41637;52.364;9.910;2023-11-19T07:07:31;14.82;;;5.13;;
55732;SDS011;41637;52.364;9.910;2023-11-19T07:09:59;15.27;;;5.47;;
55732;SDS011;41637;52.364;9.910;2023-11-19T07:12:26;16.33;;;4.70;;
55732;SDS011;41637;52.364;9.910;2023-11-19T07:14:53;14.60;;;4.93;;
55732;SDS011;41637;52.364;9.910;2023-11-19T07:17:21;14.57;;;4.95;;
55732;SDS011;41637;52.364;9.910;2023-11-19T07:19:49;17.60;;;4.88;;
55732;SDS011;41637;52.364;9.910;2023-11-19T07:22:16;18.75;;;5.30;;
55732;SDS011;41637;52.364;9.910;2023-11-19T07:24:43;15.30;;;5.10;;
55732;SDS011;41637;52.364;9.910;2023-11-19T07:27:10;20.42;;;5.07;;
55732;SDS011;41637;52.364;9.910;2023-11-19T07:29:37;18.55;;;5.35;;
55732;SDS011;41637;52.364;9.910;2023-11-19T07:32:05;18.02;;;5.03;;
55732;SDS011;41637;52.364;9.910;2023-11-19T07:34:32;18.20;;;4.93;;
55732;SDS011;41637;52.364;9.910;2023-11-19T07:36:58;16.98;;;4.57;;
55732;SDS011;41637;52.364;9.910;2023-11-19T07:39:29;19.27;;;5.25;;
55732;SDS011;41637;52.364;9.910;2023-11-19T07:41:56;19.23;;;4.80;;
55732;SDS011;41637;52.364;9.910;2023-11-19T07:44:24;15.68;;;4.68;;
55732;SDS011;41637;52.364;9.910;2023-11-19T07:46:51;18.15;;;4.85;;
55732;SDS011;41637;52.364;9.910;2023-11-19T07:49:18;16.67;;;4.30;;
55732;SDS011;41637;52.364;9.910;2023-11-19T07:51:45;19.75;;;4.93;;
55732;SDS011;41637;52.364;9.910;2023-11-19T07:54:11;16.08;;;4.40;;
55732;SDS011;41637;52.364;9.910;2023-11-19T07:56:38;21.50;;;5.60;;
55732;SDS011;41637;52.364;9.910;2023-11-19T07:59:05;18.60;;;5.05;;
55732;SDS011;41637;52.364;9.910;2023-11-19T08:01:33;18.48;;;4.70;;
55732;SDS011;41637;52.364;9.910;2023-11-19T08:03:59;20.33;;;5.13;;
55732;SDS011;41637;52.364;9.910;2023-11-19T08:06:28;14.82;;;4.32;;
55732;SDS011;41637;52.364;9.910;2023-11-19T08:08:55;19.23;;;4.78;;
55732;SDS011;41637;52.364;9.910;2023-11-19T08:11:22;20.87;;;4.70;;
55732;SDS011;41637;52.364;9.910;2023-11-19T08:13:49;21.83;;;5.22;;
55732;SDS011;41637;52.364;9.910;2023-11-19T08:16:16;19.63;;;4.80;;
55732;SDS011;41637;52.364;9.910;2023-11-19T08:18:43;16.88;;;4.47;;
55732;SDS011;41637;52.364;9.910;2023-11-19T08:21:10;21.08;;;5.70;;
55732;SDS011;41637;52.364;9.910;2023-11-19T08:23:37;20.33;;;4.85;;
55732;SDS011;41637;52.364;9.910;2023-11-19T08:26:05;18.02;;;4.63;;
55732;SDS011;41637;52.364;9.910;2023-11-19T08:28:32;17.65;;;4.97;;
55732;SDS011;41637;52.364;9.910;2023-11-19T08:31:01;18.88;;;5.07;;
55732;SDS011;41637;52.364;9.910;2023-11-19T08:33:31;20.65;;;5.47;;
55732;SDS011;41637;52.364;9.910;2023-11-19T08:35:58;18.95;;;5.20;;
55732;SDS011;41637;52.364;9.910;2023-11-19T08:38:25;21.75;;;5.60;;
55732;SDS011;41637;52.364;9.910;2023-11-19T08:40:55;23.38;;;5.43;;
55732;SDS011;41637;52.364;9.910;2023-11-19T08:43:27;20.02;;;5.25;;
55732;SDS011;41637;52.364;9.910;2023-11-19T08:45:54;21.73;;;5.38;;
55732;SDS011;41637;52.364;9.910;2023-11-19T08:48:21;21.33;;;5.25;;
55732;SDS011;41637;52.364;9.910;2023-11-19T08:50:48;18.10;;;4.80;;
55732;SDS011;41637;52.364;9.910;2023-11-19T08:53:15;19.75;;;5.07;;
55732;SDS011;41637;52.364;9.910;2023-11-19T08:55:42;19.73;;;5.38;;
55732;SDS011;41637;52.364;9.910;2023-11-19T08:58:08;20.37;;;5.33;;
55732;SDS011;41637;52.364;9.910;2023-11-19T09:00:35;22.35;;;5.97;;
55732;SDS011;41637;52.364;9.910;2023-11-19T09:03:02;19.13;;;5.15;;
55732;SDS011;41637;52.364;9.910;2023-11-19T09:05:30;22.65;;;5.70;;
55732;SDS011;41637;52.364;9.910;2023-11-19T09:07:57;21.42;;;5.90;;
55732;SDS011;41637;52.364;9.910;2023-11-19T09:10:24;21.52;;;5.70;;
55732;SDS011;41637;52.364;9.910;2023-11-19T09:12:52;18.48;;;5.45;;
55732;SDS011;41637;52.364;9.910;2023-11-19T09:15:22;19.93;;;4.90;;
55732;SDS011;41637;52.364;9.910;2023-11-19T09:17:49;21.08;;;5.38;;
55732;SDS011;41637;52.364;9.910;2023-11-19T09:20:16;24.75;;;5.95;;
55732;SDS011;41637;52.364;9.910;2023-11-19T09:22:42;20.25;;;5.60;;
55732;SDS011;41637;52.364;9.910;2023-11-19T09:25:09;16.80;;;4.68;;
55732;SDS011;41637;52.364;9.910;2023-11-19T09:27:36;24.00;;;5.88;;
55732;SDS011;41637;52.364;9.910;2023-11-19T09:30:03;20.85;;;5.47;;
55732;SDS011;41637;52.364;9.910;2023-11-19T09:32:31;16.85;;;4.50;;
55732;SDS011;41637;52.364;9.910;2023-11-19T09:34:58;20.33;;;5.27;;
55732;SDS011;41637;52.364;9.910;2023-11-19T09:37:25;21.17;;;5.60;;
55732;SDS011;41637;52.364;9.910;2023-11-19T09:39:51;21.23;;;5.90;;
55732;SDS011;41637;52.364;9.910;2023-11-19T09:42:19;23.10;;;5.93;;
55732;SDS011;41637;52.364;9.910;2023-11-19T09:44:47;21.00;;;5.43;;
55732;SDS011;41637;52.364;9.910;2023-11-19T09:47:14;20.87;;;5.83;;
55732;SDS011;41637;52.364;9.910;2023-11-19T09:49:43;22.08;;;5.38;;
55732;SDS011;41637;52.364;9.910;2023-11-19T09:52:10;19.85;;;5.28;;
55732;SDS011;41637;52.364;9.910;2023-11-19T09:54:37;18.75;;;5.03;;
55732;SDS011;41637;52.364;9.910;2023-11-19T09:57:04;21.67;;;5.45;;
55732;SDS011;41637;52.364;9.910;2023-11-19T09:59:34;19.88;;;5.63;;
55732;SDS011;41637;52.364;9.910;2023-11-19T10:02:01;21.70;;;5.65;;
55732;SDS011;41637;52.364;9.910;2023-11-19T10:04:29;22.00;;;5.43;;
55732;SDS011;41637;52.364;9.910;2023-11-19T10:06:57;20.40;;;5.10;;
55732;SDS011;41637;52.364;9.910;2023-11-19T10:09:24;17.90;;;4.60;;
55732;SDS011;41637;52.364;9.910;2023-11-19T10:11:51;17.13;;;4.57;;
55732;SDS011;41637;52.364;9.910;2023-11-19T10:14:19;18.35;;;4.63;;
55732;SDS011;41637;52.364;9.910;2023-11-19T10:16:50;18.45;;;3.85;;
55732;SDS011;41637;52.364;9.910;2023-11-19T10:19:19;19.17;;;4.47;;
55732;SDS011;41637;52.364;9.910;2023-11-19T10:21:49;16.42;;;4.47;;
55732;SDS011;41637;52.364;9.910;2023-11-19T10:24:16;17.30;;;3.90;;
55732;SDS011;41637;52.364;9.910;2023-11-19T10:26:57;21.13;;;4.40;;
55732;SDS011;41637;52.364;9.910;2023-11-19T10:29:24;20.58;;;4.55;;
55732;SDS011;41637;52.364;9.910;2023-11-19T10:31:55;15.23;;;3.50;;
55732;SDS011;41637;52.364;9.910;2023-11-19T10:34:43;23.50;;;4.77;;
55732;SDS011;41637;52.364;9.910;2023-11-19T10:37:26;19.17;;;4.97;;
55732;SDS011;41637;52.364;9.910;2023-11-19T10:39:54;18.35;;;4.30;;
55732;SDS011;41637;52.364;9.910;2023-11-19T10:42:22;20.42;;;4.40;;
55732;SDS011;41637;52.364;9.910;2023-11-19T10:44:49;19.30;;;4.65;;
55732;SDS011;41637;52.364;9.910;2023-11-19T10:47:17;19.10;;;4.57;;
55732;SDS011;41637;52.364;9.910;2023-11-19T10:49:46;12.75;;;3.63;;
55732;SDS011;41637;52.364;9.910;2023-11-19T10:52:12;18.15;;;5.25;;
55732;SDS011;41637;52.364;9.910;2023-11-19T10:54:44;16.02;;;3.97;;
55732;SDS011;41637;52.364;9.910;2023-11-19T10:57:16;13.82;;;3.70;;
55732;SDS011;41637;52.364;9.910;2023-11-19T10:59:46;16.88;;;4.07;;
55732;SDS011;41637;52.364;9.910;2023-11-19T11:02:14;19.45;;;4.40;;
55732;SDS011;41637;52.364;9.910;2023-11-19T11:04:45;18.20;;;4.27;;
55732;SDS011;41637;52.364;9.910;2023-11-19T11:07:14;15.40;;;4.33;;
55732;SDS011;41637;52.364;9.910;2023-11-19T11:09:42;19.30;;;4.03;;
55732;SDS011;41637;52.364;9.910;2023-11-19T11:12:10;16.75;;;3.92;;
55732;SDS011;41637;52.364;9.910;2023-11-19T11:14:37;15.02;;;4.10;;
55732;SDS011;41637;52.364;9.910;2023-11-19T11:17:07;14.30;;;3.95;;
55732;SDS011;41637;52.364;9.910;2023-11-19T11:19:35;17.55;;;4.32;;
55732;SDS011;41637;52.364;9.910;2023-11-19T11:22:03;23.17;;;4.97;;
55732;SDS011;41637;52.364;9.910;2023-11-19T11:24:52;18.23;;;4.93;;
55732;SDS011;41637;52.364;9.910;2023-11-19T11:36:20;16.45;;;4.13;;
55732;SDS011;41637;52.364;9.910;2023-11-19T11:38:49;18.98;;;4.68;;
55732;SDS011;41637;52.364;9.910;2023-11-19T11:41:20;16.17;;;4.00;;
55732;SDS011;41637;52.364;9.910;2023-11-19T11:43:54;16.53;;;3.67;;
55732;SDS011;41637;52.364;9.910;2023-11-19T11:49:06;12.93;;;3.13;;
55732;SDS011;41637;52.364;9.910;2023-11-19T11:54:11;23.35;;;4.72;;
55732;SDS011;41637;52.364;9.910;2023-11-19T11:57:11;15.55;;;4.65;;
55732;SDS011;41637;52.364;9.910;2023-11-19T11:59:47;16.15;;;4.25;;
55732;SDS011;41637;52.364;9.910;2023-11-19T12:02:18;15.98;;;4.57;;
55732;SDS011;41637;52.364;9.910;2023-11-19T12:04:49;19.13;;;4.45;;
55732;SDS011;41637;52.364;9.910;2023-11-19T12:09:52;14.70;;;3.47;;
55732;SDS011;41637;52.364;9.910;2023-11-19T12:12:33;15.93;;;3.90;;
55732;SDS011;41637;52.364;9.910;2023-11-19T12:15:02;17.63;;;4.13;;
55732;SDS011;41637;52.364;9.910;2023-11-19T12:20:11;19.75;;;5.38;;
55732;SDS011;41637;52.364;9.910;2023-11-19T12:22:39;30.83;;;4.93;;
55732;SDS011;41637;52.364;9.910;2023-11-19T12:25:07;20.60;;;4.72;;
55732;SDS011;41637;52.364;9.910;2023-11-19T12:27:36;19.40;;;4.70;;
55732;SDS011;41637;52.364;9.910;2023-11-19T12:30:04;18.63;;;4.22;;
55732;SDS011;41637;52.364;9.910;2023-11-19T12:32:41;17.10;;;4.85;;
55732;SDS011;41637;52.364;9.910;2023-11-19T12:35:09;17.13;;;4.85;;
55732;SDS011;41637;52.364;9.910;2023-11-19T12:37:43;16.08;;;4.45;;
55732;SDS011;41637;52.364;9.910;2023-11-19T12:40:14;18.63;;;4.47;;
55732;SDS011;41637;52.364;9.910;2023-11-19T12:42:49;17.17;;;4.50;;
55732;SDS011;41637;52.364;9.910;2023-11-19T12:45:17;16.15;;;4.75;;
55732;SDS011;41637;52.364;9.910;2023-11-19T12:47:46;20.15;;;4.13;;
55732;SDS011;41637;52.364;9.910;2023-11-19T12:50:17;16.10;;;4.53;;
55732;SDS011;41637;52.364;9.910;2023-11-19T12:53:03;18.65;;;4.20;;
55732;SDS011;41637;52.364;9.910;2023-11-19T12:55:30;14.80;;;3.58;;
55732;SDS011;41637;52.364;9.910;2023-11-19T12:57:59;17.98;;;4.35;;
55732;SDS011;41637;52.364;9.910;2023-11-19T13:00:26;17.00;;;4.30;;
55732;SDS011;41637;52.364;9.910;2023-11-19T13:02:55;20.85;;;4.28;;
55732;SDS011;41637;52.364;9.910;2023-11-19T13:05:26;17.10;;;3.97;;
55732;SDS011;41637;52.364;9.910;2023-11-19T13:10:55;19.27;;;4.17;;
55732;SDS011;41637;52.364;9.910;2023-11-19T13:13:20;17.13;;;4.63;;
55732;SDS011;41637;52.364;9.910;2023-11-19T13:15:47;16.08;;;4.18;;
55732;SDS011;41637;52.364;9.910;2023-11-19T13:18:16;13.80;;;3.72;;
55732;SDS011;41637;52.364;9.910;2023-11-19T13:20:43;18.57;;;4.73;;
55732;SDS011;41637;52.364;9.910;2023-11-19T13:23:10;15.57;;;3.95;;
55732;SDS011;41637;52.364;9.910;2023-11-19T13:25:37;10.95;;;3.35;;
55732;SDS011;41637;52.364;9.910;2023-11-19T13:28:03;15.40;;;3.63;;
55732;SDS011;41637;52.364;9.910;2023-11-19T13:30:32;19.58;;;4.20;;
55732;SDS011;41637;52.364;9.910;2023-11-19T13:32:59;16.88;;;4.03;;
55732;SDS011;41637;52.364;9.910;2023-11-19T13:35:27;16.50;;;4.05;;
55732;SDS011;41637;52.364;9.910;2023-11-19T13:37:54;18.25;;;4.28;;
55732;SDS011;41637;52.364;9.910;2023-11-19T13:40:21;16.67;;;4.53;;
55732;SDS011;41637;52.364;9.910;2023-11-19T13:42:49;21.00;;;4.32;;
55732;SDS011;41637;52.364;9.910;2023-11-19T13:45:15;16.17;;;4.15;;
55732;SDS011;41637;52.364;9.910;2023-11-19T13:47:45;17.27;;;4.60;;
55732;SDS011;41637;52.364;9.910;2023-11-19T13:50:16;17.83;;;4.60;;
55732;SDS011;41637;52.364;9.910;2023-11-19T13:52:46;19.40;;;4.15;;
55732;SDS011;41637;52.364;9.910;2023-11-19T13:55:14;17.00;;;4.03;;
55732;SDS011;41637;52.364;9.910;2023-11-19T13:57:42;17.47;;;4.37;;
55732;SDS011;41637;52.364;9.910;2023-11-19T14:00:10;15.30;;;3.95;;
55732;SDS011;41637;52.364;9.910;2023-11-19T14:02:43;16.27;;;4.27;;
55732;SDS011;41637;52.364;9.910;2023-11-19T14:05:10;14.73;;;4.50;;
55732;SDS011;41637;52.364;9.910;2023-11-19T14:07:37;18.42;;;4.40;;
55732;SDS011;41637;52.364;9.910;2023-11-19T14:10:05;18.17;;;4.45;;
55732;SDS011;41637;52.364;9.910;2023-11-19T14:12:33;17.10;;;4.23;;
55732;SDS011;41637;52.364;9.910;2023-11-19T14:15:00;14.63;;;4.30;;
55732;SDS011;41637;52.364;9.910;2023-11-19T14:17:27;23.08;;;4.45;;
55732;SDS011;41637;52.364;9.910;2023-11-19T14:19:54;16.42;;;4.28;;
55732;SDS011;41637;52.364;9.910;2023-11-19T14:22:21;14.40;;;3.60;;
55732;SDS011;41637;52.364;9.910;2023-11-19T14:24:47;16.17;;;3.75;;
55732;SDS011;41637;52.364;9.910;2023-11-19T14:27:14;21.73;;;4.80;;
55732;SDS011;41637;52.364;9.910;2023-11-19T14:29:43;18.60;;;4.30;;
55732;SDS011;41637;52.364;9.910;2023-11-19T14:32:11;16.40;;;3.70;;
55732;SDS011;41637;52.364;9.910;2023-11-19T14:34:38;17.92;;;4.50;;
55732;SDS011;41637;52.364;9.910;2023-11-19T14:37:05;15.63;;;4.53;;
55732;SDS011;41637;52.364;9.910;2023-11-19T14:39:31;17.58;;;4.63;;
55732;SDS011;41637;52.364;9.910;2023-11-19T14:41:58;18.00;;;4.40;;
55732;SDS011;41637;52.364;9.910;2023-11-19T14:44:27;18.07;;;4.33;;
55732;SDS011;41637;52.364;9.910;2023-11-19T14:46:55;14.00;;;4.00;;
55732;SDS011;41637;52.364;9.910;2023-11-19T14:49:22;16.10;;;4.20;;
55732;SDS011;41637;52.364;9.910;2023-11-19T14:51:50;19.90;;;5.20;;
55732;SDS011;41637;52.364;9.910;2023-11-19T14:54:20;20.23;;;4.68;;
55732;SDS011;41637;52.364;9.910;2023-11-19T14:56:47;19.90;;;4.40;;
55732;SDS011;41637;52.364;9.910;2023-11-19T14:59:14;14.10;;;3.50;;
55732;SDS011;41637;52.364;9.910;2023-11-19T15:01:41;17.98;;;4.22;;
55732;SDS011;41637;52.364;9.910;2023-11-19T15:04:07;15.93;;;4.20;;
55732;SDS011;41637;52.364;9.910;2023-11-19T15:06:34;18.42;;;3.92;;
55732;SDS011;41637;52.364;9.910;2023-11-19T15:09:01;21.20;;;4.30;;